Amavisti — V2CR5 — position and weather

sailwx.info

Track history (hours):
 
Tides and Currents Weather Stations Pressure Air Temp Water Temp Dewpoint Dewpoint Depression Visibility Wind Speed Wind Dir Waves Ship Positions

Amavisti

Last reported at 2017-Aug-23 00:30 UTC. Time now 2017-Aug-23 00:28 UTC.
Position N 52°11' E 003°40'.

Length 116 m; draft 4.8 m.

Type: Cargo ship. MMSI: 305086000.

Date/timePositionNaut miles runAvg speedWind from/ knotsBaromVisibWave heightAir tempDewpointWater temp
2017-Aug-23 00:30N 52°11' E 003°40'0 0.0
2017-Aug-23 00:00N 52°11' E 003°40'0 0.0
2017-Aug-22 23:30N 52°11' E 003°40'0 0.0
2017-Aug-22 23:00N 52°11' E 003°40'0 0.0
2017-Aug-22 22:30N 52°11' E 003°40'0 0.0
2017-Aug-22 22:00N 52°10' E 003°40'0 0.0
2017-Aug-22 21:30N 52°10' E 003°40'0 0.0
2017-Aug-22 21:00N 52°10' E 003°40'0 0.0
2017-Aug-22 20:30N 52°10' E 003°40'0 0.0
2017-Aug-22 20:00N 52°10' E 003°41'0 0.0
2017-Aug-22 19:30N 52°10' E 003°41'0 0.4
2017-Aug-22 19:00N 52°11' E 003°41'4 7.6
2017-Aug-22 18:30N 52°13' E 003°46'510.6
2017-Aug-22 18:00N 52°18' E 003°47'510.2
2017-Aug-22 17:30N 52°23' E 003°49'5 9.8
2017-Aug-22 17:01N 52°28' E 003°51'4 8.5
2017-Aug-22 16:30N 52°31' E 003°55'510.3
2017-Aug-22 16:01N 52°31' E 004°04'5 9.8
2017-Aug-22 15:30N 52°32' E 004°12'4 7.9
2017-Aug-22 15:01N 52°32' E 004°18'1 1.2
2017-Aug-22 14:29N 52°32' E 004°19'0 0.1
2017-Aug-22 13:59N 52°32' E 004°19'0 0.2
2017-Aug-22 13:26N 52°32' E 004°19'0 0.1
2017-Aug-22 12:59N 52°32' E 004°19'0 0.0
2017-Aug-22 12:29N 52°32' E 004°19'0 0.0
2017-Aug-22 11:59N 52°32' E 004°19'0 0.0
2017-Aug-22 11:29N 52°32' E 004°19'0 0.0
2017-Aug-22 10:59N 52°32' E 004°19'0 0.0
2017-Aug-22 10:29N 52°32' E 004°19'0 0.0
2017-Aug-22 09:59N 52°32' E 004°19'0 0.0
2017-Aug-22 09:29N 52°32' E 004°19'0 0.0
2017-Aug-22 08:59N 52°32' E 004°19'0 0.0
2017-Aug-22 08:29N 52°32' E 004°19'0 0.0
2017-Aug-22 07:59N 52°32' E 004°19'0 0.0
2017-Aug-22 07:29N 52°32' E 004°19'0 0.1
2017-Aug-22 06:59N 52°32' E 004°19'0 0.0
2017-Aug-22 06:29N 52°32' E 004°19'0 0.0
2017-Aug-22 05:59N 52°32' E 004°19'0 0.1
2017-Aug-22 05:29N 52°32' E 004°19'0 0.1
2017-Aug-22 04:59N 52°32' E 004°19'0 0.0
2017-Aug-22 04:29N 52°32' E 004°19'0 0.0
2017-Aug-22 03:59N 52°32' E 004°19'0 0.0
2017-Aug-22 03:29N 52°32' E 004°19'0 0.0
2017-Aug-22 02:59N 52°32' E 004°19'0 0.0
2017-Aug-22 02:29N 52°32' E 004°19'0 0.0
2017-Aug-22 01:59N 52°32' E 004°19'0 0.1
2017-Aug-22 01:29N 52°32' E 004°19'0 0.2
2017-Aug-22 00:59N 52°32' E 004°19'0 0.0
2017-Aug-22 00:29N 52°32' E 004°19'0 0.0
2017-Aug-21 23:59N 52°32' E 004°19'0 0.1
2017-Aug-21 23:29N 52°32' E 004°19'0 0.0
2017-Aug-21 22:59N 52°32' E 004°19'0 0.0
2017-Aug-21 22:29N 52°32' E 004°19'0 0.0
2017-Aug-21 21:59N 52°32' E 004°19'0 0.0
2017-Aug-21 21:29N 52°32' E 004°19'0 0.0
2017-Aug-21 20:59N 52°32' E 004°19'0 0.0
2017-Aug-21 20:29N 52°32' E 004°19'0 0.1
2017-Aug-21 19:59N 52°32' E 004°19'0 0.0
2017-Aug-21 19:29N 52°32' E 004°19'0 0.0
2017-Aug-21 18:56N 52°32' E 004°19'0 0.0
2017-Aug-21 18:29N 52°32' E 004°19'0 0.1
2017-Aug-21 17:59N 52°32' E 004°19'0 0.2
2017-Aug-21 17:29N 52°32' E 004°19'0 0.0
2017-Aug-21 16:59N 52°32' E 004°19'0 0.0
2017-Aug-21 16:29N 52°32' E 004°19'0 0.0
2017-Aug-21 15:59N 52°32' E 004°19'0 0.0
2017-Aug-21 15:29N 52°32' E 004°19'0 0.0
2017-Aug-21 14:59N 52°32' E 004°19'0 0.0
2017-Aug-21 14:29N 52°32' E 004°19'0 0.0
2017-Aug-21 13:59N 52°32' E 004°19'0 0.0
2017-Aug-21 13:26N 52°32' E 004°19'0 0.0
2017-Aug-21 12:56N 52°32' E 004°19'0 0.1
2017-Aug-21 12:29N 52°32' E 004°19'0 0.1
2017-Aug-21 11:59N 52°32' E 004°19'0 0.1
2017-Aug-21 11:29N 52°32' E 004°19'0 0.0
2017-Aug-21 10:59N 52°32' E 004°19'0 0.0
2017-Aug-21 10:29N 52°32' E 004°19'0 0.0
2017-Aug-21 09:59N 52°32' E 004°19'0 0.0
2017-Aug-21 09:29N 52°32' E 004°19'0 0.0
2017-Aug-21 08:59N 52°32' E 004°19'0 0.0
2017-Aug-21 08:29N 52°32' E 004°19'0 0.0
2017-Aug-21 07:59N 52°32' E 004°19'0 0.0
2017-Aug-21 07:29N 52°32' E 004°19'0 0.0
2017-Aug-21 06:59N 52°32' E 004°19'0 0.0
2017-Aug-21 06:29N 52°32' E 004°19'0 0.2
2017-Aug-21 05:59N 52°32' E 004°19'0 0.1
2017-Aug-21 05:29N 52°32' E 004°19'0 0.0
2017-Aug-21 04:59N 52°32' E 004°19'0 0.0
2017-Aug-21 04:29N 52°32' E 004°19'0 0.0
2017-Aug-21 03:59N 52°32' E 004°19'0 0.1
2017-Aug-21 03:29N 52°32' E 004°19'0 0.1
2017-Aug-21 02:59N 52°32' E 004°19'0 0.0
2017-Aug-21 02:29N 52°32' E 004°19'0 0.0
2017-Aug-21 01:59N 52°32' E 004°19'0 0.0
2017-Aug-21 01:29N 52°32' E 004°19'0 0.0
2017-Aug-21 00:59N 52°32' E 004°19'0 0.1
2017-Aug-21 00:29N 52°32' E 004°19'0 0.1
2017-Aug-20 23:59N 52°32' E 004°19'0 0.0
2017-Aug-20 23:29N 52°32' E 004°19'0 0.1
2017-Aug-20 22:59N 52°32' E 004°19'0 0.0
2017-Aug-20 22:29N 52°32' E 004°19'0 0.0
2017-Aug-20 21:59N 52°32' E 004°19'0 0.0
2017-Aug-20 21:29N 52°32' E 004°19'0 0.0
2017-Aug-20 20:56N 52°32' E 004°19'0 0.0
2017-Aug-20 20:29N 52°32' E 004°19'0 0.0
2017-Aug-20 19:59N 52°32' E 004°19'0 0.0
2017-Aug-20 19:29N 52°32' E 004°19'0 0.0
2017-Aug-20 18:56N 52°32' E 004°19'0 0.0
2017-Aug-20 18:26N 52°32' E 004°19'0 0.0
2017-Aug-20 17:56N 52°32' E 004°19'0 0.2
2017-Aug-20 17:30N 52°32' E 004°19'0 0.0
2017-Aug-20 17:00N 52°32' E 004°19'0 0.0
2017-Aug-20 16:24N 52°32' E 004°19'0 0.1
2017-Aug-20 16:00N 52°32' E 004°19'0 0.0
2017-Aug-20 15:30N 52°32' E 004°19'0 0.0
2017-Aug-20 15:00N 52°32' E 004°19'0 0.0
2017-Aug-20 14:30N 52°32' E 004°19'0 0.0
2017-Aug-20 14:00N 52°32' E 004°19'0 0.0
2017-Aug-20 13:30N 52°32' E 004°19'0 0.0
2017-Aug-20 13:00N 52°32' E 004°19'0 0.1
2017-Aug-20 12:27N 52°32' E 004°19'0 0.1
2017-Aug-20 11:54N 52°32' E 004°19'0 0.0
2017-Aug-20 11:27N 52°32' E 004°19'0 0.1
2017-Aug-20 11:00N 52°32' E 004°19'0 0.0
2017-Aug-20 10:30N 52°32' E 004°19'0 0.0
2017-Aug-20 10:00N 52°32' E 004°19'0 0.0
2017-Aug-20 09:30N 52°32' E 004°19'0 0.1
2017-Aug-20 09:00N 52°32' E 004°19'0 0.0
2017-Aug-20 08:27N 52°32' E 004°19'0 0.0
2017-Aug-20 07:54N 52°32' E 004°19'0 0.0
2017-Aug-20 07:30N 52°32' E 004°19'0 0.0
2017-Aug-20 07:00N 52°32' E 004°19'0 0.0
2017-Aug-20 06:30N 52°32' E 004°19'0 0.1
2017-Aug-20 06:00N 52°32' E 004°19'0 0.0
2017-Aug-20 05:27N 52°32' E 004°19'0 0.1
2017-Aug-20 05:00N 52°32' E 004°19'0 0.0
2017-Aug-20 04:30N 52°32' E 004°19'0 0.1
2017-Aug-20 04:00N 52°32' E 004°19'0 0.0
2017-Aug-20 03:27N 52°32' E 004°19'0 0.0
2017-Aug-20 02:57N 52°32' E 004°19'0 0.0
2017-Aug-20 02:30N 52°32' E 004°19'0 0.0
2017-Aug-20 02:00N 52°32' E 004°19'0 0.0
2017-Aug-20 01:27N 52°32' E 004°19'0 0.0
2017-Aug-20 01:00N 52°32' E 004°19'0 0.0
2017-Aug-20 00:30N 52°32' E 004°19'0 0.0
2017-Aug-20 00:00N 52°32' E 004°19'0 0.1
2017-Aug-19 23:30N 52°32' E 004°19'0 0.0
2017-Aug-19 23:00N 52°32' E 004°19'0 0.0
2017-Aug-19 22:30N 52°32' E 004°19'0 0.0
2017-Aug-19 22:00N 52°32' E 004°19'0 0.0
2017-Aug-19 21:30N 52°32' E 004°19'0 0.0
2017-Aug-19 21:00N 52°32' E 004°19'0 0.0
2017-Aug-19 20:30N 52°32' E 004°19'0 0.0
2017-Aug-19 20:00N 52°32' E 004°19'0 0.0
2017-Aug-19 19:30N 52°32' E 004°19'0 0.0
2017-Aug-19 19:00N 52°32' E 004°19'0 0.0
2017-Aug-19 18:30N 52°32' E 004°19'0 0.1
2017-Aug-19 18:00N 52°32' E 004°19'0 0.0
2017-Aug-19 17:30N 52°32' E 004°19'0 0.0
2017-Aug-19 17:00N 52°32' E 004°19'0 0.1
2017-Aug-19 16:30N 52°32' E 004°19'0 0.0
2017-Aug-19 16:00N 52°32' E 004°19'0 0.0
2017-Aug-19 15:27N 52°32' E 004°19'0 0.0
2017-Aug-19 15:00N 52°32' E 004°19'0 0.0
2017-Aug-19 14:00N 52°32' E 004°19'0 0.0
2017-Aug-19 13:30N 52°32' E 004°19'0 0.0
2017-Aug-19 13:00N 52°32' E 004°19'0 0.0
2017-Aug-19 12:30N 52°32' E 004°19'0 0.0
2017-Aug-19 12:00N 52°32' E 004°19'0 0.0
2017-Aug-19 11:27N 52°32' E 004°19'0 0.0
2017-Aug-19 11:00N 52°32' E 004°19'0 0.0
2017-Aug-19 10:30N 52°32' E 004°19'0 0.1
2017-Aug-19 09:57N 52°32' E 004°19'0 0.0
2017-Aug-19 09:30N 52°32' E 004°19'0 0.0
2017-Aug-19 09:00N 52°32' E 004°19'0 0.0
2017-Aug-19 08:30N 52°32' E 004°19'0 0.0
2017-Aug-19 08:00N 52°32' E 004°19'0 0.0
2017-Aug-19 07:30N 52°32' E 004°19'0 0.0
2017-Aug-19 07:00N 52°32' E 004°19'0 0.0
2017-Aug-19 06:30N 52°32' E 004°19'0 0.0
2017-Aug-19 06:00N 52°32' E 004°19'0 0.0
2017-Aug-19 05:30N 52°32' E 004°19'0 0.0
2017-Aug-19 05:00N 52°32' E 004°19'0 0.0
2017-Aug-19 04:27N 52°32' E 004°19'0 0.1
2017-Aug-19 04:00N 52°32' E 004°19'0 0.0
2017-Aug-19 03:30N 52°32' E 004°19'0 0.0
2017-Aug-19 03:00N 52°32' E 004°19'0 0.0
2017-Aug-19 02:30N 52°32' E 004°19'0 0.0
2017-Aug-19 02:00N 52°32' E 004°19'0 0.0
2017-Aug-19 01:30N 52°32' E 004°19'0 0.0
2017-Aug-19 01:00N 52°32' E 004°19'0 0.0
2017-Aug-19 00:30N 52°32' E 004°19'0 0.0
2017-Aug-19 00:00N 52°32' E 004°19'0 0.0
2017-Aug-18 23:30N 52°32' E 004°19'0 0.0
2017-Aug-18 23:00N 52°32' E 004°19'0 0.0
2017-Aug-18 22:30N 52°32' E 004°19'0 0.0
2017-Aug-18 22:00N 52°32' E 004°19'0 0.0
2017-Aug-18 21:27N 52°32' E 004°19'0 0.1
2017-Aug-18 20:57N 52°32' E 004°19'0 0.0
2017-Aug-18 20:27N 52°32' E 004°19'0 0.0
2017-Aug-18 20:00N 52°32' E 004°19'0 0.0
2017-Aug-18 19:30N 52°32' E 004°19'0 0.0
2017-Aug-18 18:51N 52°32' E 004°19'0 0.0
2017-Aug-18 18:27N 52°32' E 004°19'0 0.1
2017-Aug-18 18:00N 52°32' E 004°19'0 0.2
2017-Aug-18 17:30N 52°32' E 004°19'0 0.0
2017-Aug-18 17:00N 52°32' E 004°19'0 0.0
2017-Aug-18 16:27N 52°32' E 004°19'0 0.0
2017-Aug-18 16:00N 52°32' E 004°19'0 0.0
2017-Aug-18 15:30N 52°32' E 004°19'0 0.0
2017-Aug-18 15:00N 52°32' E 004°19'0 0.1
2017-Aug-18 14:00N 52°32' E 004°19'0 0.0
2017-Aug-18 13:30N 52°32' E 004°19'0 0.0
2017-Aug-18 13:00N 52°32' E 004°19'0 0.0
2017-Aug-18 12:27N 52°32' E 004°19'0 0.1
2017-Aug-18 11:57N 52°32' E 004°19'0 0.0
2017-Aug-18 11:30N 52°32' E 004°19'0 0.1
2017-Aug-18 11:00N 52°32' E 004°19'0 0.0
2017-Aug-18 10:30N 52°32' E 004°19'0 0.1
2017-Aug-18 09:57N 52°32' E 004°19'0 0.0
2017-Aug-18 09:30N 52°32' E 004°19'0 0.0
2017-Aug-18 09:00N 52°32' E 004°19'0 0.0
2017-Aug-18 08:30N 52°32' E 004°19'0 0.0
2017-Aug-18 08:00N 52°32' E 004°19'0 0.0
2017-Aug-18 07:30N 52°32' E 004°19'0 0.0
2017-Aug-18 07:00N 52°32' E 004°19'0 0.0
2017-Aug-18 06:30N 52°32' E 004°19'0 0.0
2017-Aug-18 06:00N 52°32' E 004°19'0 0.0
2017-Aug-18 05:30N 52°32' E 004°19'0 0.0
2017-Aug-18 04:57N 52°32' E 004°19'0 0.0
2017-Aug-18 04:30N 52°32' E 004°19'0 0.0
2017-Aug-18 04:00N 52°32' E 004°19'0 0.0
2017-Aug-18 03:30N 52°32' E 004°19'0 0.0
2017-Aug-18 02:57N 52°32' E 004°19'0 0.0
2017-Aug-18 02:30N 52°32' E 004°19'0 0.0
2017-Aug-18 02:00N 52°32' E 004°19'0 0.0
2017-Aug-18 01:30N 52°32' E 004°19'0 0.1
2017-Aug-18 01:00N 52°32' E 004°19'0 0.0
2017-Aug-18 00:30N 52°32' E 004°19'0 0.0
2017-Aug-18 00:00N 52°32' E 004°19'0 0.0
2017-Aug-17 23:30N 52°32' E 004°19'0 0.0
2017-Aug-17 23:00N 52°32' E 004°19'0 0.0
2017-Aug-17 22:27N 52°32' E 004°19'0 0.0
2017-Aug-17 22:00N 52°32' E 004°19'0 0.0
2017-Aug-17 21:30N 52°32' E 004°19'0 0.1
2017-Aug-17 21:00N 52°32' E 004°19'0 0.0
2017-Aug-17 20:30N 52°32' E 004°19'0 0.1
2017-Aug-17 20:00N 52°32' E 004°19'0 0.0
2017-Aug-17 19:30N 52°32' E 004°19'0 0.0
2017-Aug-17 19:00N 52°32' E 004°19'0 0.0
2017-Aug-17 18:30N 52°32' E 004°19'0 0.0
2017-Aug-17 17:57N 52°32' E 004°19'0 0.0
2017-Aug-17 17:30N 52°32' E 004°19'0 0.1
2017-Aug-17 16:57N 52°32' E 004°19'0 0.1
2017-Aug-17 16:30N 52°32' E 004°19'0 0.1
2017-Aug-17 15:57N 52°32' E 004°19'0 0.1
2017-Aug-17 15:30N 52°32' E 004°19'0 0.0
2017-Aug-17 14:57N 52°32' E 004°19'0 0.0
2017-Aug-17 14:30N 52°32' E 004°19'0 0.0
2017-Aug-17 13:54N 52°32' E 004°19'0 0.0
2017-Aug-17 13:27N 52°32' E 004°19'0 0.1
2017-Aug-17 13:00N 52°32' E 004°19'0 0.0
2017-Aug-17 12:15N 52°32' E 004°19'0 0.0
2017-Aug-17 12:00N 52°32' E 004°19'0 0.0
2017-Aug-17 11:21N 52°32' E 004°19'0 0.1
2017-Aug-17 11:00N 52°32' E 004°19'0 0.0
2017-Aug-17 10:21N 52°32' E 004°19'0 0.1
2017-Aug-17 10:00N 52°32' E 004°19'0 0.0
2017-Aug-17 09:18N 52°32' E 004°19'0 0.1
2017-Aug-17 09:00N 52°32' E 004°19'0 0.1
2017-Aug-17 08:27N 52°32' E 004°19'0 0.1
2017-Aug-17 07:51N 52°32' E 004°19'0 0.1
2017-Aug-17 07:21N 52°32' E 004°19'0 0.1
2017-Aug-17 06:57N 52°32' E 004°19'0 0.0
2017-Aug-17 06:24N 52°32' E 004°19'0 0.1
2017-Aug-17 06:00N 52°32' E 004°19'0 0.1
2017-Aug-17 05:30N 52°32' E 004°19'0 0.0
2017-Aug-17 05:00N 52°32' E 004°19'0 0.0
2017-Aug-17 04:30N 52°32' E 004°19'0 0.0
2017-Aug-17 04:00N 52°32' E 004°19'0 0.0
2017-Aug-17 03:30N 52°32' E 004°19'0 0.0
2017-Aug-17 03:00N 52°32' E 004°19'0 0.0
2017-Aug-17 02:30N 52°32' E 004°19'0 0.0
2017-Aug-17 02:00N 52°32' E 004°19'0 0.1
2017-Aug-17 01:30N 52°32' E 004°19'0 0.0
2017-Aug-17 01:00N 52°32' E 004°19'0 0.0
2017-Aug-17 00:30N 52°32' E 004°19'0 0.0
2017-Aug-16 23:57N 52°32' E 004°19'0 0.0
2017-Aug-16 23:30N 52°32' E 004°19'0 0.0
2017-Aug-16 23:00N 52°32' E 004°19'0 0.0
2017-Aug-16 22:30N 52°32' E 004°19'0 0.0
2017-Aug-16 22:00N 52°32' E 004°19'0 0.0
2017-Aug-16 21:27N 52°32' E 004°19'0 0.0
2017-Aug-16 21:00N 52°32' E 004°19'0 0.0
2017-Aug-16 20:27N 52°32' E 004°19'0 0.0
2017-Aug-16 20:00N 52°32' E 004°19'0 0.0
2017-Aug-16 19:30N 52°32' E 004°19'0 0.0
2017-Aug-16 18:51N 52°32' E 004°19'0 0.1
2017-Aug-16 18:27N 52°32' E 004°19'0 0.1
2017-Aug-16 17:51N 52°32' E 004°19'0 0.1
2017-Aug-16 16:09N 52°32' E 004°19'0 0.0
2017-Aug-16 15:54N 52°32' E 004°19'0 0.1
2017-Aug-16 13:54N 52°32' E 004°19'0 0.1
2017-Aug-16 13:21N 52°32' E 004°19'0 0.1
2017-Aug-16 12:57N 52°32' E 004°19'0 0.0
2017-Aug-16 12:27N 52°32' E 004°19'0 0.0
2017-Aug-16 11:57N 52°32' E 004°19'0 0.0
2017-Aug-16 11:30N 52°32' E 004°19'0 0.0
2017-Aug-16 11:00N 52°32' E 004°19'0 0.0
2017-Aug-16 10:27N 52°32' E 004°19'0 0.1
2017-Aug-16 10:00N 52°32' E 004°19'0 0.0
2017-Aug-16 09:24N 52°32' E 004°19'0 0.0
2017-Aug-16 09:00N 52°32' E 004°19'0 0.0
2017-Aug-16 08:30N 52°32' E 004°19'0 0.0
2017-Aug-16 07:57N 52°32' E 004°19'0 0.0
2017-Aug-16 07:30N 52°32' E 004°19'0 0.0
2017-Aug-16 06:57N 52°32' E 004°19'0 0.1
2017-Aug-16 06:30N 52°32' E 004°19'0 0.2
2017-Aug-16 05:57N 52°32' E 004°19'0 0.0
2017-Aug-16 05:24N 52°32' E 004°19'0 0.0
2017-Aug-16 04:57N 52°32' E 004°19'0 0.0
2017-Aug-16 04:27N 52°32' E 004°19'0 0.0
2017-Aug-16 04:00N 52°32' E 004°19'0 0.0
2017-Aug-16 03:24N 52°32' E 004°19'0 0.0
2017-Aug-16 03:00N 52°32' E 004°19'0 0.0
2017-Aug-16 02:30N 52°32' E 004°19'0 0.0
2017-Aug-16 02:00N 52°32' E 004°19'0 0.0
2017-Aug-16 01:30N 52°32' E 004°19'0 0.1
2017-Aug-16 00:42N 52°32' E 004°19'0 0.1
2017-Aug-16 00:21N 52°32' E 004°19'0 0.1
2017-Aug-15 23:54N 52°32' E 004°19'0 0.0
2017-Aug-15 23:27N 52°32' E 004°19'0 0.0
2017-Aug-15 23:00N 52°32' E 004°19'0 0.0
2017-Aug-15 22:30N 52°32' E 004°19'0 0.0
2017-Aug-15 22:00N 52°32' E 004°19'0 0.0
2017-Aug-15 21:30N 52°32' E 004°19'0 0.0
2017-Aug-15 21:00N 52°32' E 004°19'0 0.0
2017-Aug-15 20:30N 52°32' E 004°19'0 0.0
2017-Aug-15 20:00N 52°32' E 004°19'0 0.0
2017-Aug-15 19:27N 52°32' E 004°19'0 0.1
2017-Aug-15 19:00N 52°32' E 004°19'0 0.1
2017-Aug-15 18:27N 52°32' E 004°19'0 0.1
2017-Aug-15 17:00N 52°32' E 004°19'0 0.0
2017-Aug-15 16:30N 52°32' E 004°19'0 0.0
2017-Aug-15 15:51N 52°32' E 004°19'0 0.0
2017-Aug-15 15:27N 52°32' E 004°19'0 0.0
2017-Aug-15 14:57N 52°32' E 004°19'0 0.0
2017-Aug-15 14:30N 52°32' E 004°19'0 0.0
2017-Aug-15 14:00N 52°32' E 004°19'0 0.0
2017-Aug-15 13:21N 52°32' E 004°19'0 0.0
2017-Aug-15 13:00N 52°32' E 004°19'0 0.1
2017-Aug-15 12:30N 52°32' E 004°19'0 0.1
2017-Aug-15 11:54N 52°32' E 004°19'0 0.1
2017-Aug-15 11:27N 52°32' E 004°19'0 0.1
2017-Aug-15 11:00N 52°32' E 004°19'0 0.0
2017-Aug-15 10:27N 52°32' E 004°19'0 0.0
2017-Aug-15 10:00N 52°32' E 004°19'0 0.0
2017-Aug-15 09:27N 52°32' E 004°19'0 0.0
2017-Aug-15 09:00N 52°32' E 004°19'0 0.0
2017-Aug-15 08:30N 52°32' E 004°19'0 0.0
2017-Aug-15 07:57N 52°32' E 004°19'0 0.0
2017-Aug-15 07:24N 52°32' E 004°19'0 0.0
2017-Aug-15 07:00N 52°32' E 004°19'0 0.0
2017-Aug-15 06:27N 52°32' E 004°19'0 0.0
2017-Aug-15 06:00N 52°32' E 004°19'0 0.1
2017-Aug-15 05:27N 52°32' E 004°19'0 0.2
2017-Aug-15 05:00N 52°32' E 004°19'0 0.1
2017-Aug-15 04:30N 52°32' E 004°19'0 0.0
2017-Aug-15 04:00N 52°32' E 004°19'0 0.0
2017-Aug-15 03:30N 52°32' E 004°19'0 0.0
2017-Aug-15 03:00N 52°32' E 004°19'0 0.0
2017-Aug-15 02:30N 52°32' E 004°19'0 0.0
2017-Aug-15 02:00N 52°32' E 004°19'0 0.0
2017-Aug-15 01:30N 52°32' E 004°19'0 0.0
2017-Aug-15 01:00N 52°32' E 004°19'0 0.0
2017-Aug-15 00:30N 52°32' E 004°19'0 0.0
2017-Aug-14 23:57N 52°32' E 004°19'0 0.0
2017-Aug-14 23:30N 52°32' E 004°19'0 0.0
2017-Aug-14 23:00N 52°32' E 004°19'0 0.1
2017-Aug-14 22:30N 52°32' E 004°19'0 0.0
2017-Aug-14 22:00N 52°32' E 004°19'0 0.0
2017-Aug-14 21:30N 52°32' E 004°19'0 0.0
2017-Aug-14 21:00N 52°32' E 004°19'0 0.0
2017-Aug-14 20:30N 52°32' E 004°19'0 0.0
2017-Aug-14 20:00N 52°32' E 004°19'0 0.0
2017-Aug-14 19:30N 52°32' E 004°19'0 0.0
2017-Aug-14 19:00N 52°32' E 004°19'0 0.0
2017-Aug-14 18:30N 52°32' E 004°19'0 0.0
2017-Aug-14 18:00N 52°32' E 004°19'0 0.0
2017-Aug-14 17:30N 52°32' E 004°19'0 0.2
2017-Aug-14 17:00N 52°32' E 004°19'0 0.1
2017-Aug-14 16:30N 52°32' E 004°19'0 0.0
2017-Aug-14 15:57N 52°32' E 004°19'0 0.0
2017-Aug-14 15:24N 52°32' E 004°19'0 0.0
2017-Aug-14 15:00N 52°32' E 004°19'0 0.0
2017-Aug-14 14:30N 52°32' E 004°19'0 0.0
2017-Aug-14 14:00N 52°32' E 004°19'0 0.0
2017-Aug-14 13:27N 52°32' E 004°19'0 0.0
2017-Aug-14 12:54N 52°32' E 004°19'0 0.0
2017-Aug-14 12:30N 52°32' E 004°19'0 0.0
2017-Aug-14 11:57N 52°32' E 004°19'0 0.0
2017-Aug-14 11:27N 52°32' E 004°19'0 0.1
2017-Aug-14 10:57N 52°32' E 004°19'0 0.1
2017-Aug-14 10:30N 52°32' E 004°19'0 0.1
2017-Aug-14 10:00N 52°32' E 004°19'0 0.0
2017-Aug-14 09:30N 52°32' E 004°19'0 0.0
2017-Aug-14 08:57N 52°32' E 004°19'0 0.0
2017-Aug-14 08:30N 52°32' E 004°19'0 0.0
2017-Aug-14 07:57N 52°32' E 004°19'0 0.0
2017-Aug-14 07:30N 52°32' E 004°19'0 0.0
2017-Aug-14 07:00N 52°32' E 004°19'0 0.0
2017-Aug-14 06:30N 52°32' E 004°19'0 0.0
2017-Aug-14 05:57N 52°32' E 004°19'0 0.0
2017-Aug-14 05:27N 52°32' E 004°19'0 0.0
2017-Aug-14 05:00N 52°32' E 004°19'0 0.1
2017-Aug-14 04:27N 52°32' E 004°19'0 0.2
2017-Aug-14 04:00N 52°32' E 004°19'0 0.1
2017-Aug-14 03:30N 52°32' E 004°19'0 0.1
2017-Aug-14 02:57N 52°32' E 004°19'0 0.0
2017-Aug-14 02:27N 52°32' E 004°19'0 0.0
2017-Aug-14 01:57N 52°32' E 004°19'0 0.0
2017-Aug-14 01:27N 52°32' E 004°19'0 0.9
2017-Aug-14 00:59N 52°32' E 004°20'4 9.3
2017-Aug-14 00:30N 52°29' E 004°26'4 9.0
2017-Aug-14 00:01N 52°28' E 004°33'2 4.6
2017-Aug-13 23:30N 52°28' E 004°36'1 1.9
2017-Aug-13 23:00N 52°28' E 004°38'2 3.4
2017-Aug-13 22:30N 52°27' E 004°41'3 6.6
2017-Aug-13 22:01N 52°26' E 004°45'4 8.0
2017-Aug-13 21:31N 52°25' E 004°52'1 1.2
2017-Aug-13 21:01N 52°24' E 004°52'0 0.0
2017-Aug-13 20:29N 52°24' E 004°52'0 0.0
2017-Aug-13 19:59N 52°24' E 004°52'0 0.0
2017-Aug-13 19:29N 52°24' E 004°52'0 0.0
2017-Aug-13 18:59N 52°24' E 004°52'0 0.0
2017-Aug-13 18:29N 52°24' E 004°52'0 0.0
2017-Aug-13 17:59N 52°24' E 004°52'0 0.0
2017-Aug-13 17:29N 52°24' E 004°52'0 0.0
2017-Aug-13 16:59N 52°24' E 004°52'0 0.0
2017-Aug-13 16:29N 52°24' E 004°52'0 0.0
2017-Aug-13 15:59N 52°24' E 004°52'0 0.0
2017-Aug-13 15:29N 52°24' E 004°52'0 0.0
2017-Aug-13 14:59N 52°24' E 004°52'0 0.0
2017-Aug-13 14:29N 52°24' E 004°52'0 0.0
2017-Aug-13 13:59N 52°24' E 004°52'0 0.0
2017-Aug-13 13:29N 52°24' E 004°52'0 0.0
2017-Aug-13 12:59N 52°24' E 004°52'0 0.0
2017-Aug-13 12:29N 52°24' E 004°52'0 0.0
2017-Aug-13 11:59N 52°24' E 004°52'0 0.0
2017-Aug-13 11:29N 52°24' E 004°52'0 0.0
2017-Aug-13 10:59N 52°24' E 004°52'0 0.0
2017-Aug-13 10:29N 52°24' E 004°52'0 0.0
2017-Aug-13 09:59N 52°24' E 004°52'0 0.0
2017-Aug-13 09:29N 52°24' E 004°52'0 0.0
2017-Aug-13 08:59N 52°24' E 004°52'0 0.0
2017-Aug-13 08:29N 52°24' E 004°52'0 0.0
2017-Aug-13 07:59N 52°24' E 004°52'0 0.0
2017-Aug-13 07:29N 52°24' E 004°52'0 0.0
2017-Aug-13 06:59N 52°24' E 004°52'0 0.0
2017-Aug-13 06:29N 52°24' E 004°52'0 0.0
2017-Aug-13 05:59N 52°24' E 004°52'0 0.0
2017-Aug-13 05:29N 52°24' E 004°52'0 0.0
2017-Aug-13 04:59N 52°24' E 004°52'0 0.0
2017-Aug-13 04:29N 52°24' E 004°52'0 0.0
2017-Aug-13 03:59N 52°24' E 004°52'0 0.0
2017-Aug-13 03:29N 52°24' E 004°52'0 0.0
2017-Aug-13 02:59N 52°24' E 004°52'0 0.0
2017-Aug-13 02:29N 52°24' E 004°52'0 0.0
2017-Aug-13 01:59N 52°24' E 004°52'0 0.0
2017-Aug-13 01:29N 52°24' E 004°52'0 0.0
2017-Aug-13 00:59N 52°24' E 004°52'0 0.0
2017-Aug-13 00:29N 52°24' E 004°52'  
Track history (hours):
 
Tides and Currents Weather Stations Pressure Air Temp Water Temp Dewpoint Dewpoint Depression Visibility Wind Speed Wind Dir Waves Ship Positions

Amavisti

Last reported at 2017-Aug-23 00:30 UTC. Time now 2017-Aug-23 00:28 UTC.
Position N 52°11' E 003°40'.

Length 116 m; draft 4.8 m.

Type: Cargo ship. MMSI: 305086000.

Date/timePositionNaut miles runAvg speedWind from/ knotsBaromVisibWave heightAir tempDewpointWater temp
2017-Aug-23 00:30N 52°11' E 003°40'0 0.0
2017-Aug-23 00:00N 52°11' E 003°40'0 0.0
2017-Aug-22 23:30N 52°11' E 003°40'0 0.0
2017-Aug-22 23:00N 52°11' E 003°40'0 0.0
2017-Aug-22 22:30N 52°11' E 003°40'0 0.0
2017-Aug-22 22:00N 52°10' E 003°40'0 0.0
2017-Aug-22 21:30N 52°10' E 003°40'0 0.0
2017-Aug-22 21:00N 52°10' E 003°40'0 0.0
2017-Aug-22 20:30N 52°10' E 003°40'0 0.0
2017-Aug-22 20:00N 52°10' E 003°41'0 0.0
2017-Aug-22 19:30N 52°10' E 003°41'0 0.4
2017-Aug-22 19:00N 52°11' E 003°41'4 7.6
2017-Aug-22 18:30N 52°13' E 003°46'510.6
2017-Aug-22 18:00N 52°18' E 003°47'510.2
2017-Aug-22 17:30N 52°23' E 003°49'5 9.8
2017-Aug-22 17:01N 52°28' E 003°51'4 8.5
2017-Aug-22 16:30N 52°31' E 003°55'510.3
2017-Aug-22 16:01N 52°31' E 004°04'5 9.8
2017-Aug-22 15:30N 52°32' E 004°12'4 7.9
2017-Aug-22 15:01N 52°32' E 004°18'1 1.2
2017-Aug-22 14:29N 52°32' E 004°19'0 0.1
2017-Aug-22 13:59N 52°32' E 004°19'0 0.2
2017-Aug-22 13:26N 52°32' E 004°19'0 0.1
2017-Aug-22 12:59N 52°32' E 004°19'0 0.0
2017-Aug-22 12:29N 52°32' E 004°19'0 0.0
2017-Aug-22 11:59N 52°32' E 004°19'0 0.0
2017-Aug-22 11:29N 52°32' E 004°19'0 0.0
2017-Aug-22 10:59N 52°32' E 004°19'0 0.0
2017-Aug-22 10:29N 52°32' E 004°19'0 0.0
2017-Aug-22 09:59N 52°32' E 004°19'0 0.0
2017-Aug-22 09:29N 52°32' E 004°19'0 0.0
2017-Aug-22 08:59N 52°32' E 004°19'0 0.0
2017-Aug-22 08:29N 52°32' E 004°19'0 0.0
2017-Aug-22 07:59N 52°32' E 004°19'0 0.0
2017-Aug-22 07:29N 52°32' E 004°19'0 0.1
2017-Aug-22 06:59N 52°32' E 004°19'0 0.0
2017-Aug-22 06:29N 52°32' E 004°19'0 0.0
2017-Aug-22 05:59N 52°32' E 004°19'0 0.1
2017-Aug-22 05:29N 52°32' E 004°19'0 0.1
2017-Aug-22 04:59N 52°32' E 004°19'0 0.0
2017-Aug-22 04:29N 52°32' E 004°19'0 0.0
2017-Aug-22 03:59N 52°32' E 004°19'0 0.0
2017-Aug-22 03:29N 52°32' E 004°19'0 0.0
2017-Aug-22 02:59N 52°32' E 004°19'0 0.0
2017-Aug-22 02:29N 52°32' E 004°19'0 0.0
2017-Aug-22 01:59N 52°32' E 004°19'0 0.1
2017-Aug-22 01:29N 52°32' E 004°19'0 0.2
2017-Aug-22 00:59N 52°32' E 004°19'0 0.0
2017-Aug-22 00:29N 52°32' E 004°19'0 0.0
2017-Aug-21 23:59N 52°32' E 004°19'0 0.1
2017-Aug-21 23:29N 52°32' E 004°19'0 0.0
2017-Aug-21 22:59N 52°32' E 004°19'0 0.0
2017-Aug-21 22:29N 52°32' E 004°19'0 0.0
2017-Aug-21 21:59N 52°32' E 004°19'0 0.0
2017-Aug-21 21:29N 52°32' E 004°19'0 0.0
2017-Aug-21 20:59N 52°32' E 004°19'0 0.0
2017-Aug-21 20:29N 52°32' E 004°19'0 0.1
2017-Aug-21 19:59N 52°32' E 004°19'0 0.0
2017-Aug-21 19:29N 52°32' E 004°19'0 0.0
2017-Aug-21 18:56N 52°32' E 004°19'0 0.0
2017-Aug-21 18:29N 52°32' E 004°19'0 0.1
2017-Aug-21 17:59N 52°32' E 004°19'0 0.2
2017-Aug-21 17:29N 52°32' E 004°19'0 0.0
2017-Aug-21 16:59N 52°32' E 004°19'0 0.0
2017-Aug-21 16:29N 52°32' E 004°19'0 0.0
2017-Aug-21 15:59N 52°32' E 004°19'0 0.0
2017-Aug-21 15:29N 52°32' E 004°19'0 0.0
2017-Aug-21 14:59N 52°32' E 004°19'0 0.0
2017-Aug-21 14:29N 52°32' E 004°19'0 0.0
2017-Aug-21 13:59N 52°32' E 004°19'0 0.0
2017-Aug-21 13:26N 52°32' E 004°19'0 0.0
2017-Aug-21 12:56N 52°32' E 004°19'0 0.1
2017-Aug-21 12:29N 52°32' E 004°19'0 0.1
2017-Aug-21 11:59N 52°32' E 004°19'0 0.1
2017-Aug-21 11:29N 52°32' E 004°19'0 0.0
2017-Aug-21 10:59N 52°32' E 004°19'0 0.0
2017-Aug-21 10:29N 52°32' E 004°19'0 0.0
2017-Aug-21 09:59N 52°32' E 004°19'0 0.0
2017-Aug-21 09:29N 52°32' E 004°19'0 0.0
2017-Aug-21 08:59N 52°32' E 004°19'0 0.0
2017-Aug-21 08:29N 52°32' E 004°19'0 0.0
2017-Aug-21 07:59N 52°32' E 004°19'0 0.0
2017-Aug-21 07:29N 52°32' E 004°19'0 0.0
2017-Aug-21 06:59N 52°32' E 004°19'0 0.0
2017-Aug-21 06:29N 52°32' E 004°19'0 0.2
2017-Aug-21 05:59N 52°32' E 004°19'0 0.1
2017-Aug-21 05:29N 52°32' E 004°19'0 0.0
2017-Aug-21 04:59N 52°32' E 004°19'0 0.0
2017-Aug-21 04:29N 52°32' E 004°19'0 0.0
2017-Aug-21 03:59N 52°32' E 004°19'0 0.1
2017-Aug-21 03:29N 52°32' E 004°19'0 0.1
2017-Aug-21 02:59N 52°32' E 004°19'0 0.0
2017-Aug-21 02:29N 52°32' E 004°19'0 0.0
2017-Aug-21 01:59N 52°32' E 004°19'0 0.0
2017-Aug-21 01:29N 52°32' E 004°19'0 0.0
2017-Aug-21 00:59N 52°32' E 004°19'0 0.1
2017-Aug-21 00:29N 52°32' E 004°19'0 0.1
2017-Aug-20 23:59N 52°32' E 004°19'0 0.0
2017-Aug-20 23:29N 52°32' E 004°19'0 0.1
2017-Aug-20 22:59N 52°32' E 004°19'0 0.0
2017-Aug-20 22:29N 52°32' E 004°19'0 0.0
2017-Aug-20 21:59N 52°32' E 004°19'0 0.0
2017-Aug-20 21:29N 52°32' E 004°19'0 0.0
2017-Aug-20 20:56N 52°32' E 004°19'0 0.0
2017-Aug-20 20:29N 52°32' E 004°19'0 0.0
2017-Aug-20 19:59N 52°32' E 004°19'0 0.0
2017-Aug-20 19:29N 52°32' E 004°19'0 0.0
2017-Aug-20 18:56N 52°32' E 004°19'0 0.0
2017-Aug-20 18:26N 52°32' E 004°19'0 0.0
2017-Aug-20 17:56N 52°32' E 004°19'0 0.2
2017-Aug-20 17:30N 52°32' E 004°19'0 0.0
2017-Aug-20 17:00N 52°32' E 004°19'0 0.0
2017-Aug-20 16:24N 52°32' E 004°19'0 0.1
2017-Aug-20 16:00N 52°32' E 004°19'0 0.0
2017-Aug-20 15:30N 52°32' E 004°19'0 0.0
2017-Aug-20 15:00N 52°32' E 004°19'0 0.0
2017-Aug-20 14:30N 52°32' E 004°19'0 0.0
2017-Aug-20 14:00N 52°32' E 004°19'0 0.0
2017-Aug-20 13:30N 52°32' E 004°19'0 0.0
2017-Aug-20 13:00N 52°32' E 004°19'0 0.1
2017-Aug-20 12:27N 52°32' E 004°19'0 0.1
2017-Aug-20 11:54N 52°32' E 004°19'0 0.0
2017-Aug-20 11:27N 52°32' E 004°19'0 0.1
2017-Aug-20 11:00N 52°32' E 004°19'0 0.0
2017-Aug-20 10:30N 52°32' E 004°19'0 0.0
2017-Aug-20 10:00N 52°32' E 004°19'0 0.0
2017-Aug-20 09:30N 52°32' E 004°19'0 0.1
2017-Aug-20 09:00N 52°32' E 004°19'0 0.0
2017-Aug-20 08:27N 52°32' E 004°19'0 0.0
2017-Aug-20 07:54N 52°32' E 004°19'0 0.0
2017-Aug-20 07:30N 52°32' E 004°19'0 0.0
2017-Aug-20 07:00N 52°32' E 004°19'0 0.0
2017-Aug-20 06:30N 52°32' E 004°19'0 0.1
2017-Aug-20 06:00N 52°32' E 004°19'0 0.0
2017-Aug-20 05:27N 52°32' E 004°19'0 0.1
2017-Aug-20 05:00N 52°32' E 004°19'0 0.0
2017-Aug-20 04:30N 52°32' E 004°19'0 0.1
2017-Aug-20 04:00N 52°32' E 004°19'0 0.0
2017-Aug-20 03:27N 52°32' E 004°19'0 0.0
2017-Aug-20 02:57N 52°32' E 004°19'0 0.0
2017-Aug-20 02:30N 52°32' E 004°19'0 0.0
2017-Aug-20 02:00N 52°32' E 004°19'0 0.0
2017-Aug-20 01:27N 52°32' E 004°19'0 0.0
2017-Aug-20 01:00N 52°32' E 004°19'0 0.0
2017-Aug-20 00:30N 52°32' E 004°19'0 0.0
2017-Aug-20 00:00N 52°32' E 004°19'0 0.1
2017-Aug-19 23:30N 52°32' E 004°19'0 0.0
2017-Aug-19 23:00N 52°32' E 004°19'0 0.0
2017-Aug-19 22:30N 52°32' E 004°19'0 0.0
2017-Aug-19 22:00N 52°32' E 004°19'0 0.0
2017-Aug-19 21:30N 52°32' E 004°19'0 0.0
2017-Aug-19 21:00N 52°32' E 004°19'0 0.0
2017-Aug-19 20:30N 52°32' E 004°19'0 0.0
2017-Aug-19 20:00N 52°32' E 004°19'0 0.0
2017-Aug-19 19:30N 52°32' E 004°19'0 0.0
2017-Aug-19 19:00N 52°32' E 004°19'0 0.0
2017-Aug-19 18:30N 52°32' E 004°19'0 0.1
2017-Aug-19 18:00N 52°32' E 004°19'0 0.0
2017-Aug-19 17:30N 52°32' E 004°19'0 0.0
2017-Aug-19 17:00N 52°32' E 004°19'0 0.1
2017-Aug-19 16:30N 52°32' E 004°19'0 0.0
2017-Aug-19 16:00N 52°32' E 004°19'0 0.0
2017-Aug-19 15:27N 52°32' E 004°19'0 0.0
2017-Aug-19 15:00N 52°32' E 004°19'0 0.0
2017-Aug-19 14:00N 52°32' E 004°19'0 0.0
2017-Aug-19 13:30N 52°32' E 004°19'0 0.0
2017-Aug-19 13:00N 52°32' E 004°19'0 0.0
2017-Aug-19 12:30N 52°32' E 004°19'0 0.0
2017-Aug-19 12:00N 52°32' E 004°19'0 0.0
2017-Aug-19 11:27N 52°32' E 004°19'0 0.0
2017-Aug-19 11:00N 52°32' E 004°19'0 0.0
2017-Aug-19 10:30N 52°32' E 004°19'0 0.1
2017-Aug-19 09:57N 52°32' E 004°19'0 0.0
2017-Aug-19 09:30N 52°32' E 004°19'0 0.0
2017-Aug-19 09:00N 52°32' E 004°19'0 0.0
2017-Aug-19 08:30N 52°32' E 004°19'0 0.0
2017-Aug-19 08:00N 52°32' E 004°19'0 0.0
2017-Aug-19 07:30N 52°32' E 004°19'0 0.0
2017-Aug-19 07:00N 52°32' E 004°19'0 0.0
2017-Aug-19 06:30N 52°32' E 004°19'0 0.0
2017-Aug-19 06:00N 52°32' E 004°19'0 0.0
2017-Aug-19 05:30N 52°32' E 004°19'0 0.0
2017-Aug-19 05:00N 52°32' E 004°19'0 0.0
2017-Aug-19 04:27N 52°32' E 004°19'0 0.1
2017-Aug-19 04:00N 52°32' E 004°19'0 0.0
2017-Aug-19 03:30N 52°32' E 004°19'0 0.0
2017-Aug-19 03:00N 52°32' E 004°19'0 0.0
2017-Aug-19 02:30N 52°32' E 004°19'0 0.0
2017-Aug-19 02:00N 52°32' E 004°19'0 0.0
2017-Aug-19 01:30N 52°32' E 004°19'0 0.0
2017-Aug-19 01:00N 52°32' E 004°19'0 0.0
2017-Aug-19 00:30N 52°32' E 004°19'0 0.0
2017-Aug-19 00:00N 52°32' E 004°19'0 0.0
2017-Aug-18 23:30N 52°32' E 004°19'0 0.0
2017-Aug-18 23:00N 52°32' E 004°19'0 0.0
2017-Aug-18 22:30N 52°32' E 004°19'0 0.0
2017-Aug-18 22:00N 52°32' E 004°19'0 0.0
2017-Aug-18 21:27N 52°32' E 004°19'0 0.1
2017-Aug-18 20:57N 52°32' E 004°19'0 0.0
2017-Aug-18 20:27N 52°32' E 004°19'0 0.0
2017-Aug-18 20:00N 52°32' E 004°19'0 0.0
2017-Aug-18 19:30N 52°32' E 004°19'0 0.0
2017-Aug-18 18:51N 52°32' E 004°19'0 0.0
2017-Aug-18 18:27N 52°32' E 004°19'0 0.1
2017-Aug-18 18:00N 52°32' E 004°19'0 0.2
2017-Aug-18 17:30N 52°32' E 004°19'0 0.0
2017-Aug-18 17:00N 52°32' E 004°19'0 0.0
2017-Aug-18 16:27N 52°32' E 004°19'0 0.0
2017-Aug-18 16:00N 52°32' E 004°19'0 0.0
2017-Aug-18 15:30N 52°32' E 004°19'0 0.0
2017-Aug-18 15:00N 52°32' E 004°19'0 0.1
2017-Aug-18 14:00N 52°32' E 004°19'0 0.0
2017-Aug-18 13:30N 52°32' E 004°19'0 0.0
2017-Aug-18 13:00N 52°32' E 004°19'0 0.0
2017-Aug-18 12:27N 52°32' E 004°19'0 0.1
2017-Aug-18 11:57N 52°32' E 004°19'0 0.0
2017-Aug-18 11:30N 52°32' E 004°19'0 0.1
2017-Aug-18 11:00N 52°32' E 004°19'0 0.0
2017-Aug-18 10:30N 52°32' E 004°19'0 0.1
2017-Aug-18 09:57N 52°32' E 004°19'0 0.0
2017-Aug-18 09:30N 52°32' E 004°19'0 0.0
2017-Aug-18 09:00N 52°32' E 004°19'0 0.0
2017-Aug-18 08:30N 52°32' E 004°19'0 0.0
2017-Aug-18 08:00N 52°32' E 004°19'0 0.0
2017-Aug-18 07:30N 52°32' E 004°19'0 0.0
2017-Aug-18 07:00N 52°32' E 004°19'0 0.0
2017-Aug-18 06:30N 52°32' E 004°19'0 0.0
2017-Aug-18 06:00N 52°32' E 004°19'0 0.0
2017-Aug-18 05:30N 52°32' E 004°19'0 0.0
2017-Aug-18 04:57N 52°32' E 004°19'0 0.0
2017-Aug-18 04:30N 52°32' E 004°19'0 0.0
2017-Aug-18 04:00N 52°32' E 004°19'0 0.0
2017-Aug-18 03:30N 52°32' E 004°19'0 0.0
2017-Aug-18 02:57N 52°32' E 004°19'0 0.0
2017-Aug-18 02:30N 52°32' E 004°19'0 0.0
2017-Aug-18 02:00N 52°32' E 004°19'0 0.0
2017-Aug-18 01:30N 52°32' E 004°19'0 0.1
2017-Aug-18 01:00N 52°32' E 004°19'0 0.0
2017-Aug-18 00:30N 52°32' E 004°19'0 0.0
2017-Aug-18 00:00N 52°32' E 004°19'0 0.0
2017-Aug-17 23:30N 52°32' E 004°19'0 0.0
2017-Aug-17 23:00N 52°32' E 004°19'0 0.0
2017-Aug-17 22:27N 52°32' E 004°19'0 0.0
2017-Aug-17 22:00N 52°32' E 004°19'0 0.0
2017-Aug-17 21:30N 52°32' E 004°19'0 0.1
2017-Aug-17 21:00N 52°32' E 004°19'0 0.0
2017-Aug-17 20:30N 52°32' E 004°19'0 0.1
2017-Aug-17 20:00N 52°32' E 004°19'0 0.0
2017-Aug-17 19:30N 52°32' E 004°19'0 0.0
2017-Aug-17 19:00N 52°32' E 004°19'0 0.0
2017-Aug-17 18:30N 52°32' E 004°19'0 0.0
2017-Aug-17 17:57N 52°32' E 004°19'0 0.0
2017-Aug-17 17:30N 52°32' E 004°19'0 0.1
2017-Aug-17 16:57N 52°32' E 004°19'0 0.1
2017-Aug-17 16:30N 52°32' E 004°19'0 0.1
2017-Aug-17 15:57N 52°32' E 004°19'0 0.1
2017-Aug-17 15:30N 52°32' E 004°19'0 0.0
2017-Aug-17 14:57N 52°32' E 004°19'0 0.0
2017-Aug-17 14:30N 52°32' E 004°19'0 0.0
2017-Aug-17 13:54N 52°32' E 004°19'0 0.0
2017-Aug-17 13:27N 52°32' E 004°19'0 0.1
2017-Aug-17 13:00N 52°32' E 004°19'0 0.0
2017-Aug-17 12:15N 52°32' E 004°19'0 0.0
2017-Aug-17 12:00N 52°32' E 004°19'0 0.0
2017-Aug-17 11:21N 52°32' E 004°19'0 0.1
2017-Aug-17 11:00N 52°32' E 004°19'0 0.0
2017-Aug-17 10:21N 52°32' E 004°19'0 0.1
2017-Aug-17 10:00N 52°32' E 004°19'0 0.0
2017-Aug-17 09:18N 52°32' E 004°19'0 0.1
2017-Aug-17 09:00N 52°32' E 004°19'0 0.1
2017-Aug-17 08:27N 52°32' E 004°19'0 0.1
2017-Aug-17 07:51N 52°32' E 004°19'0 0.1
2017-Aug-17 07:21N 52°32' E 004°19'0 0.1
2017-Aug-17 06:57N 52°32' E 004°19'0 0.0
2017-Aug-17 06:24N 52°32' E 004°19'0 0.1
2017-Aug-17 06:00N 52°32' E 004°19'0 0.1
2017-Aug-17 05:30N 52°32' E 004°19'0 0.0
2017-Aug-17 05:00N 52°32' E 004°19'0 0.0
2017-Aug-17 04:30N 52°32' E 004°19'0 0.0
2017-Aug-17 04:00N 52°32' E 004°19'0 0.0
2017-Aug-17 03:30N 52°32' E 004°19'0 0.0
2017-Aug-17 03:00N 52°32' E 004°19'0 0.0
2017-Aug-17 02:30N 52°32' E 004°19'0 0.0
2017-Aug-17 02:00N 52°32' E 004°19'0 0.1
2017-Aug-17 01:30N 52°32' E 004°19'0 0.0
2017-Aug-17 01:00N 52°32' E 004°19'0 0.0
2017-Aug-17 00:30N 52°32' E 004°19'0 0.0
2017-Aug-16 23:57N 52°32' E 004°19'0 0.0
2017-Aug-16 23:30N 52°32' E 004°19'0 0.0
2017-Aug-16 23:00N 52°32' E 004°19'0 0.0
2017-Aug-16 22:30N 52°32' E 004°19'0 0.0
2017-Aug-16 22:00N 52°32' E 004°19'0 0.0
2017-Aug-16 21:27N 52°32' E 004°19'0 0.0
2017-Aug-16 21:00N 52°32' E 004°19'0 0.0
2017-Aug-16 20:27N 52°32' E 004°19'0 0.0
2017-Aug-16 20:00N 52°32' E 004°19'0 0.0
2017-Aug-16 19:30N 52°32' E 004°19'0 0.0
2017-Aug-16 18:51N 52°32' E 004°19'0 0.1
2017-Aug-16 18:27N 52°32' E 004°19'0 0.1
2017-Aug-16 17:51N 52°32' E 004°19'0 0.1
2017-Aug-16 16:09N 52°32' E 004°19'0 0.0
2017-Aug-16 15:54N 52°32' E 004°19'0 0.1
2017-Aug-16 13:54N 52°32' E 004°19'0 0.1
2017-Aug-16 13:21N 52°32' E 004°19'0 0.1
2017-Aug-16 12:57N 52°32' E 004°19'0 0.0
2017-Aug-16 12:27N 52°32' E 004°19'0 0.0
2017-Aug-16 11:57N 52°32' E 004°19'0 0.0
2017-Aug-16 11:30N 52°32' E 004°19'0 0.0
2017-Aug-16 11:00N 52°32' E 004°19'0 0.0
2017-Aug-16 10:27N 52°32' E 004°19'0 0.1
2017-Aug-16 10:00N 52°32' E 004°19'0 0.0
2017-Aug-16 09:24N 52°32' E 004°19'0 0.0
2017-Aug-16 09:00N 52°32' E 004°19'0 0.0
2017-Aug-16 08:30N 52°32' E 004°19'0 0.0
2017-Aug-16 07:57N 52°32' E 004°19'0 0.0
2017-Aug-16 07:30N 52°32' E 004°19'0 0.0
2017-Aug-16 06:57N 52°32' E 004°19'0 0.1
2017-Aug-16 06:30N 52°32' E 004°19'0 0.2
2017-Aug-16 05:57N 52°32' E 004°19'0 0.0
2017-Aug-16 05:24N 52°32' E 004°19'0 0.0
2017-Aug-16 04:57N 52°32' E 004°19'0 0.0
2017-Aug-16 04:27N 52°32' E 004°19'0 0.0
2017-Aug-16 04:00N 52°32' E 004°19'0 0.0
2017-Aug-16 03:24N 52°32' E 004°19'0 0.0
2017-Aug-16 03:00N 52°32' E 004°19'0 0.0
2017-Aug-16 02:30N 52°32' E 004°19'0 0.0
2017-Aug-16 02:00N 52°32' E 004°19'0 0.0
2017-Aug-16 01:30N 52°32' E 004°19'0 0.1
2017-Aug-16 00:42N 52°32' E 004°19'0 0.1
2017-Aug-16 00:21N 52°32' E 004°19'0 0.1
2017-Aug-15 23:54N 52°32' E 004°19'0 0.0
2017-Aug-15 23:27N 52°32' E 004°19'0 0.0
2017-Aug-15 23:00N 52°32' E 004°19'0 0.0
2017-Aug-15 22:30N 52°32' E 004°19'0 0.0
2017-Aug-15 22:00N 52°32' E 004°19'0 0.0
2017-Aug-15 21:30N 52°32' E 004°19'0 0.0
2017-Aug-15 21:00N 52°32' E 004°19'0 0.0
2017-Aug-15 20:30N 52°32' E 004°19'0 0.0
2017-Aug-15 20:00N 52°32' E 004°19'0 0.0
2017-Aug-15 19:27N 52°32' E 004°19'0 0.1
2017-Aug-15 19:00N 52°32' E 004°19'0 0.1
2017-Aug-15 18:27N 52°32' E 004°19'0 0.1
2017-Aug-15 17:00N 52°32' E 004°19'0 0.0
2017-Aug-15 16:30N 52°32' E 004°19'0 0.0
2017-Aug-15 15:51N 52°32' E 004°19'0 0.0
2017-Aug-15 15:27N 52°32' E 004°19'0 0.0
2017-Aug-15 14:57N 52°32' E 004°19'0 0.0
2017-Aug-15 14:30N 52°32' E 004°19'0 0.0
2017-Aug-15 14:00N 52°32' E 004°19'0 0.0
2017-Aug-15 13:21N 52°32' E 004°19'0 0.0
2017-Aug-15 13:00N 52°32' E 004°19'0 0.1
2017-Aug-15 12:30N 52°32' E 004°19'0 0.1
2017-Aug-15 11:54N 52°32' E 004°19'0 0.1
2017-Aug-15 11:27N 52°32' E 004°19'0 0.1
2017-Aug-15 11:00N 52°32' E 004°19'0 0.0
2017-Aug-15 10:27N 52°32' E 004°19'0 0.0
2017-Aug-15 10:00N 52°32' E 004°19'0 0.0
2017-Aug-15 09:27N 52°32' E 004°19'0 0.0
2017-Aug-15 09:00N 52°32' E 004°19'0 0.0
2017-Aug-15 08:30N 52°32' E 004°19'0 0.0
2017-Aug-15 07:57N 52°32' E 004°19'0 0.0
2017-Aug-15 07:24N 52°32' E 004°19'0 0.0
2017-Aug-15 07:00N 52°32' E 004°19'0 0.0
2017-Aug-15 06:27N 52°32' E 004°19'0 0.0
2017-Aug-15 06:00N 52°32' E 004°19'0 0.1
2017-Aug-15 05:27N 52°32' E 004°19'0 0.2
2017-Aug-15 05:00N 52°32' E 004°19'0 0.1
2017-Aug-15 04:30N 52°32' E 004°19'0 0.0
2017-Aug-15 04:00N 52°32' E 004°19'0 0.0
2017-Aug-15 03:30N 52°32' E 004°19'0 0.0
2017-Aug-15 03:00N 52°32' E 004°19'0 0.0
2017-Aug-15 02:30N 52°32' E 004°19'0 0.0
2017-Aug-15 02:00N 52°32' E 004°19'0 0.0
2017-Aug-15 01:30N 52°32' E 004°19'0 0.0
2017-Aug-15 01:00N 52°32' E 004°19'0 0.0
2017-Aug-15 00:30N 52°32' E 004°19'0 0.0
2017-Aug-14 23:57N 52°32' E 004°19'0 0.0
2017-Aug-14 23:30N 52°32' E 004°19'0 0.0
2017-Aug-14 23:00N 52°32' E 004°19'0 0.1
2017-Aug-14 22:30N 52°32' E 004°19'0 0.0
2017-Aug-14 22:00N 52°32' E 004°19'0 0.0
2017-Aug-14 21:30N 52°32' E 004°19'0 0.0
2017-Aug-14 21:00N 52°32' E 004°19'0 0.0
2017-Aug-14 20:30N 52°32' E 004°19'0 0.0
2017-Aug-14 20:00N 52°32' E 004°19'0 0.0
2017-Aug-14 19:30N 52°32' E 004°19'0 0.0
2017-Aug-14 19:00N 52°32' E 004°19'0 0.0
2017-Aug-14 18:30N 52°32' E 004°19'0 0.0
2017-Aug-14 18:00N 52°32' E 004°19'0 0.0
2017-Aug-14 17:30N 52°32' E 004°19'0 0.2
2017-Aug-14 17:00N 52°32' E 004°19'0 0.1
2017-Aug-14 16:30N 52°32' E 004°19'0 0.0
2017-Aug-14 15:57N 52°32' E 004°19'0 0.0
2017-Aug-14 15:24N 52°32' E 004°19'0 0.0
2017-Aug-14 15:00N 52°32' E 004°19'0 0.0
2017-Aug-14 14:30N 52°32' E 004°19'0 0.0
2017-Aug-14 14:00N 52°32' E 004°19'0 0.0
2017-Aug-14 13:27N 52°32' E 004°19'0 0.0
2017-Aug-14 12:54N 52°32' E 004°19'0 0.0
2017-Aug-14 12:30N 52°32' E 004°19'0 0.0
2017-Aug-14 11:57N 52°32' E 004°19'0 0.0
2017-Aug-14 11:27N 52°32' E 004°19'0 0.1
2017-Aug-14 10:57N 52°32' E 004°19'0 0.1
2017-Aug-14 10:30N 52°32' E 004°19'0 0.1
2017-Aug-14 10:00N 52°32' E 004°19'0 0.0
2017-Aug-14 09:30N 52°32' E 004°19'0 0.0
2017-Aug-14 08:57N 52°32' E 004°19'0 0.0
2017-Aug-14 08:30N 52°32' E 004°19'0 0.0
2017-Aug-14 07:57N 52°32' E 004°19'0 0.0
2017-Aug-14 07:30N 52°32' E 004°19'0 0.0
2017-Aug-14 07:00N 52°32' E 004°19'0 0.0
2017-Aug-14 06:30N 52°32' E 004°19'0 0.0
2017-Aug-14 05:57N 52°32' E 004°19'0 0.0
2017-Aug-14 05:27N 52°32' E 004°19'0 0.0
2017-Aug-14 05:00N 52°32' E 004°19'0 0.1
2017-Aug-14 04:27N 52°32' E 004°19'0 0.2
2017-Aug-14 04:00N 52°32' E 004°19'0 0.1
2017-Aug-14 03:30N 52°32' E 004°19'0 0.1
2017-Aug-14 02:57N 52°32' E 004°19'0 0.0
2017-Aug-14 02:27N 52°32' E 004°19'0 0.0
2017-Aug-14 01:57N 52°32' E 004°19'0 0.0
2017-Aug-14 01:27N 52°32' E 004°19'0 0.9
2017-Aug-14 00:59N 52°32' E 004°20'4 9.3
2017-Aug-14 00:30N 52°29' E 004°26'4 9.0
2017-Aug-14 00:01N 52°28' E 004°33'2 4.6
2017-Aug-13 23:30N 52°28' E 004°36'1 1.9
2017-Aug-13 23:00N 52°28' E 004°38'2 3.4
2017-Aug-13 22:30N 52°27' E 004°41'3 6.6
2017-Aug-13 22:01N 52°26' E 004°45'4 8.0
2017-Aug-13 21:31N 52°25' E 004°52'1 1.2
2017-Aug-13 21:01N 52°24' E 004°52'0 0.0
2017-Aug-13 20:29N 52°24' E 004°52'0 0.0
2017-Aug-13 19:59N 52°24' E 004°52'0 0.0
2017-Aug-13 19:29N 52°24' E 004°52'0 0.0
2017-Aug-13 18:59N 52°24' E 004°52'0 0.0
2017-Aug-13 18:29N 52°24' E 004°52'0 0.0
2017-Aug-13 17:59N 52°24' E 004°52'0 0.0
2017-Aug-13 17:29N 52°24' E 004°52'0 0.0
2017-Aug-13 16:59N 52°24' E 004°52'0 0.0
2017-Aug-13 16:29N 52°24' E 004°52'0 0.0
2017-Aug-13 15:59N 52°24' E 004°52'0 0.0
2017-Aug-13 15:29N 52°24' E 004°52'0 0.0
2017-Aug-13 14:59N 52°24' E 004°52'0 0.0
2017-Aug-13 14:29N 52°24' E 004°52'0 0.0
2017-Aug-13 13:59N 52°24' E 004°52'0 0.0
2017-Aug-13 13:29N 52°24' E 004°52'0 0.0
2017-Aug-13 12:59N 52°24' E 004°52'0 0.0
2017-Aug-13 12:29N 52°24' E 004°52'0 0.0
2017-Aug-13 11:59N 52°24' E 004°52'0 0.0
2017-Aug-13 11:29N 52°24' E 004°52'0 0.0
2017-Aug-13 10:59N 52°24' E 004°52'0 0.0
2017-Aug-13 10:29N 52°24' E 004°52'0 0.0
2017-Aug-13 09:59N 52°24' E 004°52'0 0.0
2017-Aug-13 09:29N 52°24' E 004°52'0 0.0
2017-Aug-13 08:59N 52°24' E 004°52'0 0.0
2017-Aug-13 08:29N 52°24' E 004°52'0 0.0
2017-Aug-13 07:59N 52°24' E 004°52'0 0.0
2017-Aug-13 07:29N 52°24' E 004°52'0 0.0
2017-Aug-13 06:59N 52°24' E 004°52'0 0.0
2017-Aug-13 06:29N 52°24' E 004°52'0 0.0
2017-Aug-13 05:59N 52°24' E 004°52'0 0.0
2017-Aug-13 05:29N 52°24' E 004°52'0 0.0
2017-Aug-13 04:59N 52°24' E 004°52'0 0.0
2017-Aug-13 04:29N 52°24' E 004°52'0 0.0
2017-Aug-13 03:59N 52°24' E 004°52'0 0.0
2017-Aug-13 03:29N 52°24' E 004°52'0 0.0
2017-Aug-13 02:59N 52°24' E 004°52'0 0.0
2017-Aug-13 02:29N 52°24' E 004°52'0 0.0
2017-Aug-13 01:59N 52°24' E 004°52'0 0.0
2017-Aug-13 01:29N 52°24' E 004°52'0 0.0
2017-Aug-13 00:59N 52°24' E 004°52'0 0.0
2017-Aug-13 00:29N 52°24' E 004°52'  

Dump ship's entire track history